sensor_id;sensor_type;location;lat;lon;timestamp;P1;durP1;ratioP1;P2;durP2;ratioP2
64313;SDS011;50650;48.180;11.524;2022-10-03T00:00:01;2.42;;;1.80;;
64313;SDS011;50650;48.180;11.524;2022-10-03T00:02:37;4.05;;;1.92;;
64313;SDS011;50650;48.180;11.524;2022-10-03T00:05:35;2.70;;;1.77;;
64313;SDS011;50650;48.180;11.524;2022-10-03T00:08:07;2.40;;;1.95;;
64313;SDS011;50650;48.180;11.524;2022-10-03T00:10:46;5.18;;;2.28;;
64313;SDS011;50650;48.180;11.524;2022-10-03T00:13:22;2.85;;;2.00;;
64313;SDS011;50650;48.180;11.524;2022-10-03T00:15:54;2.28;;;2.08;;
64313;SDS011;50650;48.180;11.524;2022-10-03T00:18:32;2.40;;;1.80;;
64313;SDS011;50650;48.180;11.524;2022-10-03T00:21:08;2.78;;;2.20;;
64313;SDS011;50650;48.180;11.524;2022-10-03T00:23:46;5.93;;;2.60;;
64313;SDS011;50650;48.180;11.524;2022-10-03T00:26:17;4.57;;;2.35;;
64313;SDS011;50650;48.180;11.524;2022-10-03T00:28:59;7.00;;;2.70;;
64313;SDS011;50650;48.180;11.524;2022-10-03T00:31:36;2.90;;;2.30;;
64313;SDS011;50650;48.180;11.524;2022-10-03T00:34:11;2.72;;;2.45;;
64313;SDS011;50650;48.180;11.524;2022-10-03T00:36:45;4.90;;;3.05;;
64313;SDS011;50650;48.180;11.524;2022-10-03T00:39:30;4.85;;;2.90;;
64313;SDS011;50650;48.180;11.524;2022-10-03T00:51:10;3.20;;;2.47;;
64313;SDS011;50650;48.180;11.524;2022-10-03T00:53:54;3.60;;;2.70;;
64313;SDS011;50650;48.180;11.524;2022-10-03T00:56:31;6.38;;;3.50;;
64313;SDS011;50650;48.180;11.524;2022-10-03T00:59:14;4.20;;;2.90;;
64313;SDS011;50650;48.180;11.524;2022-10-03T01:01:47;4.05;;;2.75;;
64313;SDS011;50650;48.180;11.524;2022-10-03T01:07:03;5.13;;;3.20;;
64313;SDS011;50650;48.180;11.524;2022-10-03T01:09:45;5.28;;;3.22;;
64313;SDS011;50650;48.180;11.524;2022-10-03T01:12:25;6.55;;;3.35;;
64313;SDS011;50650;48.180;11.524;2022-10-03T01:15:02;4.22;;;3.25;;
64313;SDS011;50650;48.180;11.524;2022-10-03T01:17:37;4.50;;;3.70;;
64313;SDS011;50650;48.180;11.524;2022-10-03T01:20:15;5.75;;;3.28;;
64313;SDS011;50650;48.180;11.524;2022-10-03T01:22:52;4.00;;;3.60;;
64313;SDS011;50650;48.180;11.524;2022-10-03T01:25:31;4.38;;;3.30;;
64313;SDS011;50650;48.180;11.524;2022-10-03T01:31:28;5.22;;;3.50;;
64313;SDS011;50650;48.180;11.524;2022-10-03T01:33:59;6.45;;;3.45;;
64313;SDS011;50650;48.180;11.524;2022-10-03T01:36:30;5.15;;;3.78;;
64313;SDS011;50650;48.180;11.524;2022-10-03T01:39:01;6.35;;;3.83;;
64313;SDS011;50650;48.180;11.524;2022-10-03T01:41:33;5.75;;;4.18;;
64313;SDS011;50650;48.180;11.524;2022-10-03T01:44:03;5.25;;;3.70;;
64313;SDS011;50650;48.180;11.524;2022-10-03T01:46:40;6.43;;;3.92;;
64313;SDS011;50650;48.180;11.524;2022-10-03T01:49:13;7.03;;;4.20;;
64313;SDS011;50650;48.180;11.524;2022-10-03T01:51:44;5.68;;;4.05;;
64313;SDS011;50650;48.180;11.524;2022-10-03T01:54:17;9.13;;;4.70;;
64313;SDS011;50650;48.180;11.524;2022-10-03T01:56:51;8.48;;;4.40;;
64313;SDS011;50650;48.180;11.524;2022-10-03T01:59:20;6.45;;;4.07;;
64313;SDS011;50650;48.180;11.524;2022-10-03T02:01:50;6.57;;;4.07;;
64313;SDS011;50650;48.180;11.524;2022-10-03T02:04:27;9.20;;;4.78;;
64313;SDS011;50650;48.180;11.524;2022-10-03T02:06:58;10.48;;;4.40;;
64313;SDS011;50650;48.180;11.524;2022-10-03T02:09:32;6.63;;;4.00;;
64313;SDS011;50650;48.180;11.524;2022-10-03T02:12:06;5.47;;;3.90;;
64313;SDS011;50650;48.180;11.524;2022-10-03T02:14:39;6.93;;;3.97;;
64313;SDS011;50650;48.180;11.524;2022-10-03T02:17:13;8.65;;;4.80;;
64313;SDS011;50650;48.180;11.524;2022-10-03T02:19:48;5.05;;;4.20;;
64313;SDS011;50650;48.180;11.524;2022-10-03T02:22:27;5.80;;;4.30;;
64313;SDS011;50650;48.180;11.524;2022-10-03T02:24:57;8.75;;;4.70;;
64313;SDS011;50650;48.180;11.524;2022-10-03T02:27:35;6.80;;;4.25;;
64313;SDS011;50650;48.180;11.524;2022-10-03T02:30:18;6.32;;;3.85;;
64313;SDS011;50650;48.180;11.524;2022-10-03T02:35:49;5.45;;;4.22;;
64313;SDS011;50650;48.180;11.524;2022-10-03T02:38:42;5.45;;;4.32;;
64313;SDS011;50650;48.180;11.524;2022-10-03T02:41:36;6.03;;;4.30;;
64313;SDS011;50650;48.180;11.524;2022-10-03T02:47:41;6.57;;;4.65;;
64313;SDS011;50650;48.180;11.524;2022-10-03T02:50:25;8.70;;;4.72;;
64313;SDS011;50650;48.180;11.524;2022-10-03T02:53:23;7.63;;;4.45;;
64313;SDS011;50650;48.180;11.524;2022-10-03T02:59:08;7.03;;;4.35;;
64313;SDS011;50650;48.180;11.524;2022-10-03T03:02:06;7.63;;;4.70;;
64313;SDS011;50650;48.180;11.524;2022-10-03T03:05:18;8.55;;;4.95;;
64313;SDS011;50650;48.180;11.524;2022-10-03T03:07:58;5.97;;;4.75;;
64313;SDS011;50650;48.180;11.524;2022-10-03T03:17:06;5.68;;;4.63;;
64313;SDS011;50650;48.180;11.524;2022-10-03T03:19:44;7.78;;;4.88;;
64313;SDS011;50650;48.180;11.524;2022-10-03T03:22:30;7.65;;;4.40;;
64313;SDS011;50650;48.180;11.524;2022-10-03T03:25:14;7.47;;;4.70;;
64313;SDS011;50650;48.180;11.524;2022-10-03T03:27:51;8.27;;;5.22;;
64313;SDS011;50650;48.180;11.524;2022-10-03T03:30:28;6.45;;;4.35;;
64313;SDS011;50650;48.180;11.524;2022-10-03T03:33:02;9.10;;;5.20;;
64313;SDS011;50650;48.180;11.524;2022-10-03T03:35:35;10.13;;;5.40;;
64313;SDS011;50650;48.180;11.524;2022-10-03T03:38:13;7.07;;;4.93;;
64313;SDS011;50650;48.180;11.524;2022-10-03T03:40:53;10.10;;;4.90;;
64313;SDS011;50650;48.180;11.524;2022-10-03T03:43:30;7.30;;;5.20;;
64313;SDS011;50650;48.180;11.524;2022-10-03T03:46:09;5.82;;;4.50;;
64313;SDS011;50650;48.180;11.524;2022-10-03T03:48:50;16.63;;;5.38;;
64313;SDS011;50650;48.180;11.524;2022-10-03T03:51:31;10.13;;;4.80;;
64313;SDS011;50650;48.180;11.524;2022-10-03T03:54:05;5.90;;;4.72;;
64313;SDS011;50650;48.180;11.524;2022-10-03T03:57:06;6.13;;;4.85;;
64313;SDS011;50650;48.180;11.524;2022-10-03T03:59:58;7.35;;;4.75;;
64313;SDS011;50650;48.180;11.524;2022-10-03T04:02:33;7.43;;;5.13;;
64313;SDS011;50650;48.180;11.524;2022-10-03T04:05:08;6.55;;;4.85;;
64313;SDS011;50650;48.180;11.524;2022-10-03T04:07:51;8.88;;;5.28;;
64313;SDS011;50650;48.180;11.524;2022-10-03T04:10:26;7.97;;;4.88;;
64313;SDS011;50650;48.180;11.524;2022-10-03T04:13:04;8.45;;;5.50;;
64313;SDS011;50650;48.180;11.524;2022-10-03T04:15:52;9.02;;;5.00;;
64313;SDS011;50650;48.180;11.524;2022-10-03T04:18:37;8.18;;;5.45;;
64313;SDS011;50650;48.180;11.524;2022-10-03T04:21:35;5.60;;;4.75;;
64313;SDS011;50650;48.180;11.524;2022-10-03T04:24:11;9.32;;;5.55;;
64313;SDS011;50650;48.180;11.524;2022-10-03T04:26:47;8.20;;;5.97;;
64313;SDS011;50650;48.180;11.524;2022-10-03T04:32:14;7.97;;;5.60;;
64313;SDS011;50650;48.180;11.524;2022-10-03T04:34:52;10.10;;;5.35;;
64313;SDS011;50650;48.180;11.524;2022-10-03T04:37:31;7.88;;;5.30;;
64313;SDS011;50650;48.180;11.524;2022-10-03T04:40:22;9.48;;;5.65;;
64313;SDS011;50650;48.180;11.524;2022-10-03T04:42:56;7.10;;;5.25;;
64313;SDS011;50650;48.180;11.524;2022-10-03T04:45:34;7.65;;;5.90;;
64313;SDS011;50650;48.180;11.524;2022-10-03T04:48:05;11.10;;;5.88;;
64313;SDS011;50650;48.180;11.524;2022-10-03T04:50:38;7.80;;;5.38;;
64313;SDS011;50650;48.180;11.524;2022-10-03T04:53:11;8.55;;;5.35;;
64313;SDS011;50650;48.180;11.524;2022-10-03T04:55:46;8.43;;;5.07;;
64313;SDS011;50650;48.180;11.524;2022-10-03T04:58:16;8.43;;;5.53;;
64313;SDS011;50650;48.180;11.524;2022-10-03T05:00:53;7.68;;;5.80;;
64313;SDS011;50650;48.180;11.524;2022-10-03T05:03:27;7.70;;;5.55;;
64313;SDS011;50650;48.180;11.524;2022-10-03T05:06:01;11.30;;;6.03;;
64313;SDS011;50650;48.180;11.524;2022-10-03T05:08:34;10.30;;;6.10;;
64313;SDS011;50650;48.180;11.524;2022-10-03T05:11:10;7.88;;;5.53;;
64313;SDS011;50650;48.180;11.524;2022-10-03T05:13:55;6.32;;;5.07;;
64313;SDS011;50650;48.180;11.524;2022-10-03T05:16:29;7.28;;;5.10;;
64313;SDS011;50650;48.180;11.524;2022-10-03T05:19:04;9.93;;;5.05;;
64313;SDS011;50650;48.180;11.524;2022-10-03T05:21:43;7.20;;;5.43;;
64313;SDS011;50650;48.180;11.524;2022-10-03T05:24:15;8.30;;;4.95;;
64313;SDS011;50650;48.180;11.524;2022-10-03T05:26:45;7.03;;;5.15;;
64313;SDS011;50650;48.180;11.524;2022-10-03T05:29:18;11.23;;;5.47;;
64313;SDS011;50650;48.180;11.524;2022-10-03T05:31:55;8.10;;;5.03;;
64313;SDS011;50650;48.180;11.524;2022-10-03T05:34:32;9.50;;;5.82;;
64313;SDS011;50650;48.180;11.524;2022-10-03T05:37:22;7.97;;;5.10;;
64313;SDS011;50650;48.180;11.524;2022-10-03T05:39:59;8.00;;;5.30;;
64313;SDS011;50650;48.180;11.524;2022-10-03T05:42:38;10.00;;;5.28;;
64313;SDS011;50650;48.180;11.524;2022-10-03T05:45:17;7.78;;;5.10;;
64313;SDS011;50650;48.180;11.524;2022-10-03T05:47:50;9.10;;;4.70;;
64313;SDS011;50650;48.180;11.524;2022-10-03T05:50:27;6.22;;;5.00;;
64313;SDS011;50650;48.180;11.524;2022-10-03T05:53:19;8.13;;;5.25;;
64313;SDS011;50650;48.180;11.524;2022-10-03T05:55:58;8.75;;;4.93;;
64313;SDS011;50650;48.180;11.524;2022-10-03T06:01:46;6.38;;;5.07;;
64313;SDS011;50650;48.180;11.524;2022-10-03T06:04:41;6.65;;;4.88;;
64313;SDS011;50650;48.180;11.524;2022-10-03T06:07:39;6.37;;;5.10;;
64313;SDS011;50650;48.180;11.524;2022-10-03T06:10:17;7.05;;;5.20;;
64313;SDS011;50650;48.180;11.524;2022-10-03T06:13:01;6.43;;;4.78;;
64313;SDS011;50650;48.180;11.524;2022-10-03T06:15:44;7.03;;;5.65;;
64313;SDS011;50650;48.180;11.524;2022-10-03T06:18:29;9.02;;;5.72;;
64313;SDS011;50650;48.180;11.524;2022-10-03T06:30:41;8.77;;;5.40;;
64313;SDS011;50650;48.180;11.524;2022-10-03T06:36:23;6.93;;;5.18;;
64313;SDS011;50650;48.180;11.524;2022-10-03T06:39:18;13.88;;;5.30;;
64313;SDS011;50650;48.180;11.524;2022-10-03T06:42:16;8.90;;;5.28;;
64313;SDS011;50650;48.180;11.524;2022-10-03T06:45:00;5.47;;;4.82;;
64313;SDS011;50650;48.180;11.524;2022-10-03T06:47:50;8.73;;;5.05;;
64313;SDS011;50650;48.180;11.524;2022-10-03T06:50:38;10.52;;;5.20;;
64313;SDS011;50650;48.180;11.524;2022-10-03T06:53:16;7.00;;;5.55;;
64313;SDS011;50650;48.180;11.524;2022-10-03T06:56:03;10.40;;;5.25;;
64313;SDS011;50650;48.180;11.524;2022-10-03T06:58:53;8.18;;;5.25;;
64313;SDS011;50650;48.180;11.524;2022-10-03T07:07:21;7.22;;;5.07;;
64313;SDS011;50650;48.180;11.524;2022-10-03T07:10:28;8.75;;;5.88;;
64313;SDS011;50650;48.180;11.524;2022-10-03T07:13:18;8.45;;;5.00;;
64313;SDS011;50650;48.180;11.524;2022-10-03T07:16:17;8.20;;;5.82;;
64313;SDS011;50650;48.180;11.524;2022-10-03T07:19:07;8.30;;;5.18;;
64313;SDS011;50650;48.180;11.524;2022-10-03T07:25:03;8.05;;;5.10;;
64313;SDS011;50650;48.180;11.524;2022-10-03T07:27:52;6.45;;;5.60;;
64313;SDS011;50650;48.180;11.524;2022-10-03T07:30:26;11.75;;;9.48;;
64313;SDS011;50650;48.180;11.524;2022-10-03T07:33:09;12.65;;;8.55;;
64313;SDS011;50650;48.180;11.524;2022-10-03T07:36:01;7.72;;;5.32;;
64313;SDS011;50650;48.180;11.524;2022-10-03T07:42:22;7.60;;;5.57;;
64313;SDS011;50650;48.180;11.524;2022-10-03T07:50:49;8.93;;;4.78;;
64313;SDS011;50650;48.180;11.524;2022-10-03T07:56:34;9.70;;;5.75;;
64313;SDS011;50650;48.180;11.524;2022-10-03T08:02:03;11.80;;;5.70;;
64313;SDS011;50650;48.180;11.524;2022-10-03T08:04:54;9.25;;;5.53;;
64313;SDS011;50650;48.180;11.524;2022-10-03T08:07:48;12.07;;;5.97;;
64313;SDS011;50650;48.180;11.524;2022-10-03T08:10:45;11.18;;;7.00;;
64313;SDS011;50650;48.180;11.524;2022-10-03T08:13:26;10.70;;;6.43;;
64313;SDS011;50650;48.180;11.524;2022-10-03T08:16:02;10.30;;;6.82;;
64313;SDS011;50650;48.180;11.524;2022-10-03T08:18:43;12.20;;;6.55;;
64313;SDS011;50650;48.180;11.524;2022-10-03T08:21:20;7.18;;;6.07;;
64313;SDS011;50650;48.180;11.524;2022-10-03T08:30:19;10.43;;;6.25;;
64313;SDS011;50650;48.180;11.524;2022-10-03T08:36:02;9.27;;;6.72;;
64313;SDS011;50650;48.180;11.524;2022-10-03T08:38:47;13.85;;;6.57;;
64313;SDS011;50650;48.180;11.524;2022-10-03T08:44:42;11.95;;;6.72;;
64313;SDS011;50650;48.180;11.524;2022-10-03T08:56:23;9.30;;;5.22;;
64313;SDS011;50650;48.180;11.524;2022-10-03T09:05:17;11.30;;;5.68;;
64313;SDS011;50650;48.180;11.524;2022-10-03T09:08:07;7.53;;;4.88;;
64313;SDS011;50650;48.180;11.524;2022-10-03T09:11:02;7.90;;;4.90;;
64313;SDS011;50650;48.180;11.524;2022-10-03T09:16:45;7.22;;;4.22;;
64313;SDS011;50650;48.180;11.524;2022-10-03T09:19:34;10.30;;;4.95;;
64313;SDS011;50650;48.180;11.524;2022-10-03T09:22:29;10.73;;;5.10;;
64313;SDS011;50650;48.180;11.524;2022-10-03T09:25:30;8.43;;;4.72;;
64313;SDS011;50650;48.180;11.524;2022-10-03T09:28:25;8.77;;;4.78;;
64313;SDS011;50650;48.180;11.524;2022-10-03T09:31:16;8.75;;;4.10;;
64313;SDS011;50650;48.180;11.524;2022-10-03T09:33:59;10.10;;;4.53;;
64313;SDS011;50650;48.180;11.524;2022-10-03T09:36:58;10.43;;;4.30;;
64313;SDS011;50650;48.180;11.524;2022-10-03T09:40:01;9.68;;;3.95;;
64313;SDS011;50650;48.180;11.524;2022-10-03T09:42:40;8.30;;;3.90;;
64313;SDS011;50650;48.180;11.524;2022-10-03T09:48:29;6.22;;;3.17;;
64313;SDS011;50650;48.180;11.524;2022-10-03T09:51:12;6.28;;;3.22;;
64313;SDS011;50650;48.180;11.524;2022-10-03T09:54:02;11.02;;;3.92;;
64313;SDS011;50650;48.180;11.524;2022-10-03T09:56:56;13.27;;;3.90;;
64313;SDS011;50650;48.180;11.524;2022-10-03T09:59:36;6.95;;;3.55;;
64313;SDS011;50650;48.180;11.524;2022-10-03T10:02:24;7.50;;;3.53;;
64313;SDS011;50650;48.180;11.524;2022-10-03T10:05:13;9.27;;;3.28;;
64313;SDS011;50650;48.180;11.524;2022-10-03T10:08:07;9.93;;;3.92;;
64313;SDS011;50650;48.180;11.524;2022-10-03T10:11:02;7.35;;;3.67;;
64313;SDS011;50650;48.180;11.524;2022-10-03T10:13:53;7.63;;;3.80;;
64313;SDS011;50650;48.180;11.524;2022-10-03T10:25:23;8.80;;;2.70;;
64313;SDS011;50650;48.180;11.524;2022-10-03T10:31:01;5.63;;;2.55;;
64313;SDS011;50650;48.180;11.524;2022-10-03T10:34:00;5.20;;;2.20;;
64313;SDS011;50650;48.180;11.524;2022-10-03T10:39:59;6.65;;;3.13;;
64313;SDS011;50650;48.180;11.524;2022-10-03T10:49:05;6.07;;;1.90;;
64313;SDS011;50650;48.180;11.524;2022-10-03T10:55:10;10.30;;;2.33;;
64313;SDS011;50650;48.180;11.524;2022-10-03T10:58:25;5.00;;;1.90;;
64313;SDS011;50650;48.180;11.524;2022-10-03T11:01:37;4.80;;;2.10;;
64313;SDS011;50650;48.180;11.524;2022-10-03T11:04:27;2.92;;;1.80;;
64313;SDS011;50650;48.180;11.524;2022-10-03T11:07:24;3.95;;;1.55;;
64313;SDS011;50650;48.180;11.524;2022-10-03T11:13:11;5.20;;;2.40;;
64313;SDS011;50650;48.180;11.524;2022-10-03T11:19:10;7.45;;;2.35;;
64313;SDS011;50650;48.180;11.524;2022-10-03T11:22:08;7.25;;;2.20;;
64313;SDS011;50650;48.180;11.524;2022-10-03T11:28:21;3.92;;;1.60;;
64313;SDS011;50650;48.180;11.524;2022-10-03T11:37:31;5.68;;;2.40;;
64313;SDS011;50650;48.180;11.524;2022-10-03T11:40:08;3.63;;;1.40;;
64313;SDS011;50650;48.180;11.524;2022-10-03T11:42:49;7.88;;;1.60;;
64313;SDS011;50650;48.180;11.524;2022-10-03T11:45:22;5.82;;;1.90;;
64313;SDS011;50650;48.180;11.524;2022-10-03T11:47:54;3.58;;;1.80;;
64313;SDS011;50650;48.180;11.524;2022-10-03T11:50:32;7.78;;;1.88;;
64313;SDS011;50650;48.180;11.524;2022-10-03T11:53:11;6.05;;;1.70;;
64313;SDS011;50650;48.180;11.524;2022-10-03T11:55:44;5.15;;;2.08;;
64313;SDS011;50650;48.180;11.524;2022-10-03T12:01:17;7.65;;;2.50;;
64313;SDS011;50650;48.180;11.524;2022-10-03T12:03:50;6.47;;;2.85;;
64313;SDS011;50650;48.180;11.524;2022-10-03T12:06:26;6.72;;;2.08;;
64313;SDS011;50650;48.180;11.524;2022-10-03T12:09:21;4.57;;;1.55;;
64313;SDS011;50650;48.180;11.524;2022-10-03T12:11:57;5.80;;;2.05;;
64313;SDS011;50650;48.180;11.524;2022-10-03T12:14:31;11.10;;;2.38;;
64313;SDS011;50650;48.180;11.524;2022-10-03T12:17:04;6.65;;;2.35;;
64313;SDS011;50650;48.180;11.524;2022-10-03T12:19:36;3.50;;;1.75;;
64313;SDS011;50650;48.180;11.524;2022-10-03T12:22:17;3.50;;;1.63;;
64313;SDS011;50650;48.180;11.524;2022-10-03T12:24:51;6.60;;;2.28;;
64313;SDS011;50650;48.180;11.524;2022-10-03T12:27:24;5.53;;;2.08;;
64313;SDS011;50650;48.180;11.524;2022-10-03T12:30:04;4.45;;;1.98;;
64313;SDS011;50650;48.180;11.524;2022-10-03T12:32:41;5.75;;;2.50;;
64313;SDS011;50650;48.180;11.524;2022-10-03T12:37:49;3.63;;;2.35;;
64313;SDS011;50650;48.180;11.524;2022-10-03T12:40:24;8.32;;;2.47;;
64313;SDS011;50650;48.180;11.524;2022-10-03T12:42:58;4.78;;;2.05;;
64313;SDS011;50650;48.180;11.524;2022-10-03T12:45:30;4.32;;;1.85;;
64313;SDS011;50650;48.180;11.524;2022-10-03T12:47:59;4.53;;;1.92;;
64313;SDS011;50650;48.180;11.524;2022-10-03T12:50:38;5.82;;;2.03;;
64313;SDS011;50650;48.180;11.524;2022-10-03T12:53:18;5.20;;;1.83;;
64313;SDS011;50650;48.180;11.524;2022-10-03T12:55:54;4.78;;;1.70;;
64313;SDS011;50650;48.180;11.524;2022-10-03T12:58:28;3.53;;;1.60;;
64313;SDS011;50650;48.180;11.524;2022-10-03T13:01:04;3.92;;;1.70;;
64313;SDS011;50650;48.180;11.524;2022-10-03T13:03:35;6.20;;;1.70;;
64313;SDS011;50650;48.180;11.524;2022-10-03T13:06:11;3.13;;;1.70;;
64313;SDS011;50650;48.180;11.524;2022-10-03T13:08:54;5.88;;;1.60;;
64313;SDS011;50650;48.180;11.524;2022-10-03T13:11:34;5.60;;;1.70;;
64313;SDS011;50650;48.180;11.524;2022-10-03T13:14:08;5.38;;;1.67;;
64313;SDS011;50650;48.180;11.524;2022-10-03T13:16:45;4.63;;;1.48;;
64313;SDS011;50650;48.180;11.524;2022-10-03T13:19:18;7.07;;;2.08;;
64313;SDS011;50650;48.180;11.524;2022-10-03T13:21:50;7.25;;;2.13;;
64313;SDS011;50650;48.180;11.524;2022-10-03T13:24:28;4.93;;;1.88;;
64313;SDS011;50650;48.180;11.524;2022-10-03T13:27:01;6.50;;;2.00;;
64313;SDS011;50650;48.180;11.524;2022-10-03T13:32:07;4.97;;;1.50;;
64313;SDS011;50650;48.180;11.524;2022-10-03T13:34:43;4.55;;;1.48;;
64313;SDS011;50650;48.180;11.524;2022-10-03T13:37:24;5.78;;;1.80;;
64313;SDS011;50650;48.180;11.524;2022-10-03T13:39:56;5.25;;;2.05;;
64313;SDS011;50650;48.180;11.524;2022-10-03T13:42:30;4.53;;;1.60;;
64313;SDS011;50650;48.180;11.524;2022-10-03T13:45:01;4.15;;;1.90;;
64313;SDS011;50650;48.180;11.524;2022-10-03T13:50:18;4.25;;;1.63;;
64313;SDS011;50650;48.180;11.524;2022-10-03T13:52:48;4.38;;;1.52;;
64313;SDS011;50650;48.180;11.524;2022-10-03T13:55:21;6.25;;;2.53;;
64313;SDS011;50650;48.180;11.524;2022-10-03T13:58:08;3.70;;;1.52;;
64313;SDS011;50650;48.180;11.524;2022-10-03T14:01:17;5.85;;;1.70;;
64313;SDS011;50650;48.180;11.524;2022-10-03T14:03:58;3.70;;;1.20;;
64313;SDS011;50650;48.180;11.524;2022-10-03T14:06:35;5.68;;;1.40;;
64313;SDS011;50650;48.180;11.524;2022-10-03T14:09:11;4.38;;;1.45;;
64313;SDS011;50650;48.180;11.524;2022-10-03T14:11:58;5.22;;;1.48;;
64313;SDS011;50650;48.180;11.524;2022-10-03T14:14:36;5.68;;;1.45;;
64313;SDS011;50650;48.180;11.524;2022-10-03T14:17:12;6.72;;;1.50;;
64313;SDS011;50650;48.180;11.524;2022-10-03T14:19:48;4.72;;;1.50;;
64313;SDS011;50650;48.180;11.524;2022-10-03T14:22:27;4.68;;;1.40;;
64313;SDS011;50650;48.180;11.524;2022-10-03T14:25:00;4.63;;;1.33;;
64313;SDS011;50650;48.180;11.524;2022-10-03T14:27:35;2.90;;;0.95;;
64313;SDS011;50650;48.180;11.524;2022-10-03T14:30:10;6.40;;;1.63;;
64313;SDS011;50650;48.180;11.524;2022-10-03T14:32:38;6.00;;;1.33;;
64313;SDS011;50650;48.180;11.524;2022-10-03T14:35:16;7.43;;;1.48;;
64313;SDS011;50650;48.180;11.524;2022-10-03T14:37:50;8.20;;;1.30;;
64313;SDS011;50650;48.180;11.524;2022-10-03T14:40:20;5.70;;;1.52;;
64313;SDS011;50650;48.180;11.524;2022-10-03T14:43:03;7.43;;;1.27;;
64313;SDS011;50650;48.180;11.524;2022-10-03T14:45:38;2.80;;;1.20;;
64313;SDS011;50650;48.180;11.524;2022-10-03T14:48:11;5.22;;;1.40;;
64313;SDS011;50650;48.180;11.524;2022-10-03T14:50:41;7.93;;;1.52;;
64313;SDS011;50650;48.180;11.524;2022-10-03T14:53:11;5.03;;;1.55;;
64313;SDS011;50650;48.180;11.524;2022-10-03T14:55:42;2.88;;;1.15;;
64313;SDS011;50650;48.180;11.524;2022-10-03T14:58:12;5.80;;;1.60;;
64313;SDS011;50650;48.180;11.524;2022-10-03T15:00:44;5.28;;;1.30;;
64313;SDS011;50650;48.180;11.524;2022-10-03T15:03:12;6.63;;;1.20;;
64313;SDS011;50650;48.180;11.524;2022-10-03T15:05:59;6.63;;;1.60;;
64313;SDS011;50650;48.180;11.524;2022-10-03T15:08:29;5.82;;;1.30;;
64313;SDS011;50650;48.180;11.524;2022-10-03T15:11:00;4.55;;;1.50;;
64313;SDS011;50650;48.180;11.524;2022-10-03T15:13:27;3.58;;;1.52;;
64313;SDS011;50650;48.180;11.524;2022-10-03T15:15:55;4.68;;;1.23;;
64313;SDS011;50650;48.180;11.524;2022-10-03T15:18:22;4.35;;;1.30;;
64313;SDS011;50650;48.180;11.524;2022-10-03T15:20:50;7.28;;;1.63;;
64313;SDS011;50650;48.180;11.524;2022-10-03T15:23:19;5.90;;;1.52;;
64313;SDS011;50650;48.180;11.524;2022-10-03T15:25:47;4.32;;;1.10;;
64313;SDS011;50650;48.180;11.524;2022-10-03T15:28:18;4.47;;;1.52;;
64313;SDS011;50650;48.180;11.524;2022-10-03T15:30:47;3.55;;;1.42;;
64313;SDS011;50650;48.180;11.524;2022-10-03T15:33:26;4.38;;;1.25;;
64313;SDS011;50650;48.180;11.524;2022-10-03T15:35:55;5.22;;;1.38;;
64313;SDS011;50650;48.180;11.524;2022-10-03T15:38:28;6.18;;;1.40;;
64313;SDS011;50650;48.180;11.524;2022-10-03T15:41:05;5.32;;;1.20;;
64313;SDS011;50650;48.180;11.524;2022-10-03T15:43:33;6.28;;;1.48;;
64313;SDS011;50650;48.180;11.524;2022-10-03T15:46:11;3.33;;;1.20;;
64313;SDS011;50650;48.180;11.524;2022-10-03T15:48:40;3.45;;;1.17;;
64313;SDS011;50650;48.180;11.524;2022-10-03T15:51:13;3.75;;;1.50;;
64313;SDS011;50650;48.180;11.524;2022-10-03T15:53:42;5.60;;;1.58;;
64313;SDS011;50650;48.180;11.524;2022-10-03T15:56:18;5.47;;;1.13;;
64313;SDS011;50650;48.180;11.524;2022-10-03T15:58:48;5.72;;;1.45;;
64313;SDS011;50650;48.180;11.524;2022-10-03T16:01:17;4.03;;;1.60;;
64313;SDS011;50650;48.180;11.524;2022-10-03T16:03:48;5.10;;;1.15;;
64313;SDS011;50650;48.180;11.524;2022-10-03T16:06:17;4.38;;;1.33;;
64313;SDS011;50650;48.180;11.524;2022-10-03T16:08:49;5.60;;;1.55;;
64313;SDS011;50650;48.180;11.524;2022-10-03T16:11:22;3.75;;;1.30;;
64313;SDS011;50650;48.180;11.524;2022-10-03T16:13:53;3.10;;;1.40;;
64313;SDS011;50650;48.180;11.524;2022-10-03T16:16:27;5.30;;;1.33;;
64313;SDS011;50650;48.180;11.524;2022-10-03T16:19:07;4.25;;;1.45;;
64313;SDS011;50650;48.180;11.524;2022-10-03T16:21:55;4.40;;;1.52;;
64313;SDS011;50650;48.180;11.524;2022-10-03T16:26:58;5.90;;;1.38;;
64313;SDS011;50650;48.180;11.524;2022-10-03T16:29:31;4.57;;;1.50;;
64313;SDS011;50650;48.180;11.524;2022-10-03T16:32:01;2.92;;;1.20;;
64313;SDS011;50650;48.180;11.524;2022-10-03T16:34:31;7.18;;;2.13;;
64313;SDS011;50650;48.180;11.524;2022-10-03T16:36:59;5.30;;;1.25;;
64313;SDS011;50650;48.180;11.524;2022-10-03T16:39:31;11.02;;;2.92;;
64313;SDS011;50650;48.180;11.524;2022-10-03T16:41:59;5.63;;;1.30;;
64313;SDS011;50650;48.180;11.524;2022-10-03T16:44:35;4.40;;;1.48;;
64313;SDS011;50650;48.180;11.524;2022-10-03T16:47:05;4.63;;;1.48;;
64313;SDS011;50650;48.180;11.524;2022-10-03T16:49:35;3.60;;;1.30;;
64313;SDS011;50650;48.180;11.524;2022-10-03T16:52:23;4.70;;;1.67;;
64313;SDS011;50650;48.180;11.524;2022-10-03T16:54:56;4.18;;;1.40;;
64313;SDS011;50650;48.180;11.524;2022-10-03T16:57:26;4.28;;;1.55;;
64313;SDS011;50650;48.180;11.524;2022-10-03T16:59:57;2.40;;;1.40;;
64313;SDS011;50650;48.180;11.524;2022-10-03T17:02:28;4.55;;;1.60;;
64313;SDS011;50650;48.180;11.524;2022-10-03T17:05:11;5.35;;;1.90;;
64313;SDS011;50650;48.180;11.524;2022-10-03T17:07:39;7.95;;;2.13;;
64313;SDS011;50650;48.180;11.524;2022-10-03T17:10:20;7.43;;;1.92;;
64313;SDS011;50650;48.180;11.524;2022-10-03T17:12:54;5.82;;;1.92;;
64313;SDS011;50650;48.180;11.524;2022-10-03T17:15:25;10.70;;;1.90;;
64313;SDS011;50650;48.180;11.524;2022-10-03T17:17:53;9.90;;;1.90;;
64313;SDS011;50650;48.180;11.524;2022-10-03T17:20:31;3.70;;;2.05;;
64313;SDS011;50650;48.180;11.524;2022-10-03T17:23:02;5.38;;;2.10;;
64313;SDS011;50650;48.180;11.524;2022-10-03T17:25:36;4.57;;;2.25;;
64313;SDS011;50650;48.180;11.524;2022-10-03T17:28:06;5.95;;;2.25;;
64313;SDS011;50650;48.180;11.524;2022-10-03T17:30:40;7.57;;;3.92;;
64313;SDS011;50650;48.180;11.524;2022-10-03T17:33:12;4.33;;;2.93;;
64313;SDS011;50650;48.180;11.524;2022-10-03T17:35:46;6.47;;;3.30;;
64313;SDS011;50650;48.180;11.524;2022-10-03T17:38:19;6.53;;;2.55;;
64313;SDS011;50650;48.180;11.524;2022-10-03T17:40:55;7.03;;;2.50;;
64313;SDS011;50650;48.180;11.524;2022-10-03T17:43:38;9.43;;;3.88;;
64313;SDS011;50650;48.180;11.524;2022-10-03T17:46:08;8.27;;;4.60;;
64313;SDS011;50650;48.180;11.524;2022-10-03T17:48:40;7.63;;;3.40;;
64313;SDS011;50650;48.180;11.524;2022-10-03T17:51:22;9.10;;;3.40;;
64313;SDS011;50650;48.180;11.524;2022-10-03T17:53:53;9.27;;;3.60;;
64313;SDS011;50650;48.180;11.524;2022-10-03T17:56:22;9.90;;;4.13;;
64313;SDS011;50650;48.180;11.524;2022-10-03T17:58:50;6.63;;;3.20;;
64313;SDS011;50650;48.180;11.524;2022-10-03T18:01:21;10.15;;;4.10;;
64313;SDS011;50650;48.180;11.524;2022-10-03T18:03:53;9.18;;;3.85;;
64313;SDS011;50650;48.180;11.524;2022-10-03T18:09:19;9.75;;;4.85;;
64313;SDS011;50650;48.180;11.524;2022-10-03T18:14:18;9.65;;;4.55;;
64313;SDS011;50650;48.180;11.524;2022-10-03T18:16:57;12.18;;;4.90;;
64313;SDS011;50650;48.180;11.524;2022-10-03T18:19:32;10.30;;;6.13;;
64313;SDS011;50650;48.180;11.524;2022-10-03T18:22:13;13.65;;;5.43;;
64313;SDS011;50650;48.180;11.524;2022-10-03T18:24:52;11.70;;;5.18;;
64313;SDS011;50650;48.180;11.524;2022-10-03T18:27:26;12.25;;;5.68;;